Time;durP1;ratioP1;P1;durP2;ratioP2;P2;SDS_P1;SDS_P2;PMS_P1;PMS_P2;Temp;Humidity;BMP_temperature;BMP_pressure;BME280_temperature;BME280_humidity;BME280_pressure;Samples;Min_cycle;Max_cycle;Signal;HPM_P1;HPM_P2
2023/09/08 00:02:27;;;;;;;0.47;0.20;;;;;;;16.99;96.31;100444.28;5001648;28;20496;-49
2023/09/08 00:04:54;;;;;;;0.40;0.20;;;;;;;16.97;96.44;100439.94;5006853;28;20475;-49
2023/09/08 00:07:21;;;;;;;0.40;0.20;;;;;;;16.92;96.51;100436.63;5006419;28;20571;-49
2023/09/08 00:09:48;;;;;;;0.40;0.20;;;;;;;17.01;95.65;100428.97;5000322;28;20780;-49
2023/09/08 00:12:15;;;;;;;0.50;0.30;;;;;;;16.86;96.17;100427.09;5000349;28;20460;-49
2023/09/08 00:14:42;;;;;;;0.50;0.20;;;;;;;16.85;96.48;100430.72;5006036;28;20481;-49
2023/09/08 00:17:08;;;;;;;0.40;0.20;;;;;;;16.83;96.60;100425.41;5006620;28;20467;-49
2023/09/08 00:19:35;;;;;;;0.50;0.20;;;;;;;16.78;96.21;100426.63;5000698;28;20457;-49
2023/09/08 00:22:05;;;;;;;0.40;0.20;;;;;;;16.78;97.27;100429.31;5000033;28;20862;-49
2023/09/08 00:24:32;;;;;;;1.90;1.80;;;;;;;16.74;96.54;100425.91;5012860;28;20452;-50
2023/09/08 00:26:59;;;;;;;0.50;0.20;;;;;;;16.86;96.09;100421.72;4999681;28;20955;-49
2023/09/08 00:29:25;;;;;;;0.50;0.20;;;;;;;16.68;95.65;100425.34;5006560;28;20481;-49
2023/09/08 00:31:51;;;;;;;0.50;0.30;;;;;;;16.65;95.99;100429.03;5006489;28;20448;-49
2023/09/08 00:34:18;;;;;;;0.40;0.20;;;;;;;16.57;96.01;100420.50;5001434;28;20820;-49
2023/09/08 00:36:45;;;;;;;0.47;0.20;;;;;;;16.43;97.05;100425.69;4999725;28;20828;-49
2023/09/08 00:39:11;;;;;;;0.50;0.20;;;;;;;16.36;96.90;100426.97;5012208;28;20903;-49
2023/09/08 00:41:37;;;;;;;0.40;0.20;;;;;;;16.42;96.99;100426.63;4999565;28;20576;-51
2023/09/08 00:44:04;;;;;;;0.40;0.20;;;;;;;16.36;96.34;100421.59;5004906;28;20842;-49
2023/09/08 00:46:31;;;;;;;0.50;0.50;;;;;;;16.33;96.40;100422.63;5006391;28;20914;-50
2023/09/08 00:48:57;;;;;;;0.40;0.20;;;;;;;16.49;96.67;100428.09;5004295;28;20504;-49
2023/09/08 00:51:24;;;;;;;0.40;0.20;;;;;;;16.40;97.17;100421.34;5006507;28;20448;-49
2023/09/08 00:53:50;;;;;;;0.40;0.20;;;;;;;16.38;96.50;100427.75;5006749;28;20449;-49
2023/09/08 00:56:17;;;;;;;0.40;0.20;;;;;;;16.27;96.46;100428.28;5011371;28;20465;-49
2023/09/08 00:58:44;;;;;;;0.50;0.20;;;;;;;16.19;96.29;100426.00;5012304;28;20507;-49
2023/09/08 01:01:10;;;;;;;0.40;0.20;;;;;;;16.10;97.03;100422.88;4999318;28;20485;-48
2023/09/08 01:03:37;;;;;;;0.40;0.20;;;;;;;16.15;97.07;100427.06;5004052;28;20446;-49
2023/09/08 01:06:04;;;;;;;0.50;0.20;;;;;;;16.03;96.62;100426.81;5006231;28;20468;-49
2023/09/08 01:08:31;;;;;;;0.50;0.30;;;;;;;16.13;97.29;100426.28;5001889;28;20543;-49
2023/09/08 01:10:58;;;;;;;0.40;0.20;;;;;;;15.92;97.72;100436.25;4999548;28;20441;-49
2023/09/08 01:13:24;;;;;;;2.87;1.80;;;;;;;15.96;97.60;100426.25;5003461;28;20541;-49
2023/09/08 01:15:51;;;;;;;0.40;0.20;;;;;;;15.84;98.00;100432.19;5005850;28;20487;-50
2023/09/08 01:18:17;;;;;;;0.40;0.20;;;;;;;15.92;97.56;100436.25;5001790;28;20522;-49
2023/09/08 01:20:56;;;;;;;0.40;0.20;;;;;;;15.91;96.58;100423.81;4999494;28;21003;-50
2023/09/08 01:23:53;;;;;;;0.50;0.20;;;;;;;15.94;97.51;100425.47;5011470;28;20688;-49
2023/09/08 01:26:23;;;;;;;0.40;0.20;;;;;;;15.91;97.62;100430.97;4994582;28;20476;-49
2023/09/08 01:28:50;;;;;;;0.40;0.20;;;;;;;15.98;96.93;100427.03;5010732;28;20460;-49
2023/09/08 01:31:18;;;;;;;0.50;0.27;;;;;;;15.79;96.20;100427.06;5000212;28;20453;-49
2023/09/08 01:33:45;;;;;;;0.40;0.20;;;;;;;15.60;97.14;100434.22;5010358;28;20452;-49
2023/09/08 01:36:12;;;;;;;0.40;0.20;;;;;;;15.53;97.53;100428.25;5006373;28;20898;-48
2023/09/08 01:38:39;;;;;;;0.40;0.20;;;;;;;15.72;97.38;100425.59;5003368;28;20589;-50
2023/09/08 01:41:05;;;;;;;0.50;0.20;;;;;;;15.64;96.49;100438.53;5006553;28;20497;-49
2023/09/08 01:43:32;;;;;;;0.40;0.20;;;;;;;15.36;97.84;100439.78;5009707;28;20449;-49
2023/09/08 01:45:58;;;;;;;0.40;0.20;;;;;;;15.42;99.54;100433.25;4998375;28;20473;-49
2023/09/08 01:48:25;;;;;;;0.40;0.20;;;;;;;15.59;97.80;100433.34;5009299;28;20970;-48
2023/09/08 01:50:51;;;;;;;0.47;0.20;;;;;;;15.65;96.78;100424.19;4997479;28;20464;-49
2023/09/08 01:53:18;;;;;;;0.40;0.20;;;;;;;15.60;97.27;100432.41;5013159;28;20470;-49
2023/09/08 01:55:45;;;;;;;0.40;0.20;;;;;;;15.58;97.89;100439.63;5026126;28;20563;-49
2023/09/08 01:58:11;;;;;;;0.50;0.40;;;;;;;15.39;97.21;100439.63;5018056;28;20543;-49
2023/09/08 02:00:38;;;;;;;0.40;0.20;;;;;;;15.48;97.59;100435.63;5004986;28;20536;-50
2023/09/08 02:03:04;;;;;;;0.40;0.20;;;;;;;15.52;97.89;100431.03;5009432;28;20449;-48
2023/09/08 02:05:31;;;;;;;0.40;0.20;;;;;;;15.66;96.97;100425.91;5001675;28;21049;-49
2023/09/08 02:07:57;;;;;;;0.50;0.30;;;;;;;15.59;97.17;100425.31;5009404;28;20834;-49
2023/09/08 02:10:24;;;;;;;0.40;0.20;;;;;;;15.43;98.57;100431.44;5006355;28;20456;-49
2023/09/08 02:12:51;;;;;;;0.40;0.20;;;;;;;15.38;98.29;100429.84;5002568;28;20539;-49
2023/09/08 02:15:18;;;;;;;0.40;0.20;;;;;;;15.30;97.97;100429.31;5004621;28;21045;-49
2023/09/08 02:17:45;;;;;;;0.40;0.20;;;;;;;15.38;97.98;100432.53;5008957;28;20472;-49
2023/09/08 02:20:11;;;;;;;0.40;0.20;;;;;;;15.36;97.73;100438.91;5007679;28;21031;-49
2023/09/08 02:22:38;;;;;;;0.40;0.20;;;;;;;15.28;97.60;100428.53;5002175;28;20488;-50
2023/09/08 02:25:05;;;;;;;0.40;0.20;;;;;;;15.37;98.08;100432.59;5015011;28;21044;-49
2023/09/08 02:27:31;;;;;;;0.40;0.20;;;;;;;15.26;97.78;100434.91;5002388;28;20476;-51
2023/09/08 02:29:57;;;;;;;0.40;0.20;;;;;;;15.21;98.41;100426.19;5003142;28;20548;-49
2023/09/08 02:32:24;;;;;;;0.40;0.20;;;;;;;15.16;98.44;100426.41;5008642;28;20461;-50
2023/09/08 02:34:52;;;;;;;0.40;0.20;;;;;;;15.19;98.35;100434.28;5000795;28;20549;-49
2023/09/08 02:37:19;;;;;;;0.40;0.20;;;;;;;15.21;97.95;100429.72;5007636;28;20458;-49
2023/09/08 02:39:45;;;;;;;0.50;0.40;;;;;;;15.13;98.61;100429.22;4996460;28;20460;-49
2023/09/08 02:42:11;;;;;;;0.40;0.20;;;;;;;15.09;98.00;100428.50;5008560;28;20853;-49
2023/09/08 02:44:38;;;;;;;0.40;0.20;;;;;;;15.20;97.34;100425.31;5007855;28;20970;-49
2023/09/08 02:47:06;;;;;;;0.40;0.20;;;;;;;15.02;98.17;100435.06;5008511;28;20875;-49
2023/09/08 02:49:32;;;;;;;0.40;0.20;;;;;;;15.04;98.36;100429.63;5008336;28;20484;-49
2023/09/08 02:51:59;;;;;;;0.40;0.20;;;;;;;15.09;97.63;100436.53;5002287;28;20455;-49
2023/09/08 02:54:25;;;;;;;0.40;0.20;;;;;;;15.08;97.65;100440.16;5014210;28;20454;-49
2023/09/08 02:56:52;;;;;;;0.40;0.20;;;;;;;15.24;97.44;100428.75;5028120;28;20560;-49
2023/09/08 02:59:18;;;;;;;0.40;0.20;;;;;;;15.15;96.91;100435.38;5014629;28;20539;-49
2023/09/08 03:01:45;;;;;;;0.40;0.20;;;;;;;14.97;97.08;100439.75;5001076;28;21065;-49
2023/09/08 03:04:12;;;;;;;0.40;0.20;;;;;;;14.87;97.74;100437.53;5008063;28;20453;-51
2023/09/08 03:06:38;;;;;;;0.40;0.20;;;;;;;14.74;98.81;100437.19;5007710;28;20560;-49
2023/09/08 03:09:05;;;;;;;0.40;0.20;;;;;;;14.79;99.15;100436.06;5008025;28;20828;-49
2023/09/08 03:11:31;;;;;;;0.40;0.20;;;;;;;14.76;99.56;100429.97;5001669;28;20457;-50
2023/09/08 03:13:57;;;;;;;0.40;0.20;;;;;;;14.87;98.71;100432.19;5001253;28;20512;-50
2023/09/08 03:16:24;;;;;;;0.40;0.20;;;;;;;14.86;98.82;100439.34;5001420;28;20484;-49
2023/09/08 03:18:51;;;;;;;0.40;0.20;;;;;;;14.77;97.57;100439.75;5013118;28;21004;-49
2023/09/08 03:21:17;;;;;;;0.40;0.20;;;;;;;14.71;97.94;100435.53;5001664;28;20997;-49
2023/09/08 03:23:45;;;;;;;0.40;0.20;;;;;;;14.69;98.24;100444.56;5013573;28;20543;-52
2023/09/08 03:26:11;;;;;;;0.40;0.20;;;;;;;14.70;98.16;100441.81;5006873;28;20497;-53
2023/09/08 03:28:41;;;;;;;0.40;0.20;;;;;;;14.59;98.38;100430.72;5007628;28;20522;-49
2023/09/08 03:31:07;;;;;;;0.40;0.20;;;;;;;14.66;98.55;100436.66;5002746;28;20456;-49
2023/09/08 03:33:34;;;;;;;0.40;0.20;;;;;;;14.54;97.13;100427.38;5000810;28;20458;-50
2023/09/08 03:36:01;;;;;;;0.40;0.20;;;;;;;14.39;98.08;100436.88;5005875;28;20556;-49
2023/09/08 03:38:27;;;;;;;0.40;0.20;;;;;;;14.44;96.74;100436.72;5007690;28;20478;-49
2023/09/08 03:40:54;;;;;;;0.40;0.20;;;;;;;14.43;97.45;100430.47;5003030;28;20444;-48
2023/09/08 03:43:20;;;;;;;0.40;0.20;;;;;;;14.35;98.21;100435.25;4998325;28;20846;-49
2023/09/08 03:45:47;;;;;;;0.40;0.20;;;;;;;14.40;96.91;100432.41;5002938;28;20815;-50
2023/09/08 03:48:14;;;;;;;0.40;0.20;;;;;;;14.36;97.86;100430.75;5000394;28;20548;-49
2023/09/08 03:50:41;;;;;;;0.40;0.20;;;;;;;14.37;97.63;100430.69;5004829;28;20485;-49
2023/09/08 03:53:08;;;;;;;0.40;0.20;;;;;;;14.26;97.70;100424.09;5010043;28;20531;-49
2023/09/08 03:55:34;;;;;;;0.40;0.20;;;;;;;14.34;98.32;100428.16;5013083;28;20546;-49
2023/09/08 03:58:01;;;;;;;0.40;0.30;;;;;;;14.32;97.37;100431.84;5013490;28;20461;-49
2023/09/08 04:00:27;;;;;;;0.40;0.20;;;;;;;14.20;96.85;100435.88;5009019;28;20540;-49
2023/09/08 04:02:54;;;;;;;0.40;0.20;;;;;;;14.20;98.01;100430.53;5008214;28;20492;-50
2023/09/08 04:05:21;;;;;;;2.10;1.33;;;;;;;14.03;98.54;100433.91;5011223;28;20985;-49
2023/09/08 04:07:47;;;;;;;0.40;0.20;;;;;;;14.12;99.43;100436.22;5011197;28;20453;-49
2023/09/08 04:10:14;;;;;;;0.40;0.20;;;;;;;14.17;99.32;100438.69;5003646;28;20460;-49
2023/09/08 04:12:41;;;;;;;0.40;0.20;;;;;;;14.17;99.22;100438.69;5002587;28;20957;-49
2023/09/08 04:15:08;;;;;;;0.50;0.50;;;;;;;14.34;98.55;100441.53;5002841;28;20568;-49
2023/09/08 04:17:36;;;;;;;0.40;0.20;;;;;;;14.20;98.63;100439.44;5006346;28;20462;-49
2023/09/08 04:20:06;;;;;;;0.40;0.20;;;;;;;14.20;98.79;100444.78;5002743;28;20547;-49
2023/09/08 04:22:33;;;;;;;0.40;0.20;;;;;;;14.23;98.76;100435.75;5010074;28;20492;-49
2023/09/08 04:25:00;;;;;;;0.50;0.30;;;;;;;14.07;98.92;100440.84;5012701;28;20563;-49
2023/09/08 04:27:27;;;;;;;0.40;0.20;;;;;;;14.10;98.52;100438.06;4999899;28;20455;-48
2023/09/08 04:29:54;;;;;;;0.40;0.20;;;;;;;14.21;98.40;100440.28;5002396;28;20918;-48
2023/09/08 04:32:20;;;;;;;0.40;0.20;;;;;;;14.20;98.27;100449.25;5010433;28;20869;-48
2023/09/08 04:34:47;;;;;;;0.40;0.20;;;;;;;14.08;98.07;100444.41;5001285;28;20544;-48
2023/09/08 04:37:14;;;;;;;0.40;0.20;;;;;;;14.21;98.17;100442.97;5005476;28;20441;-49
2023/09/08 04:39:40;;;;;;;0.40;0.30;;;;;;;14.09;97.67;100444.34;5000480;28;20771;-48
2023/09/08 04:42:07;;;;;;;0.40;0.20;;;;;;;13.83;97.64;100450.72;5010408;28;20566;-49
2023/09/08 04:44:33;;;;;;;0.40;0.20;;;;;;;14.08;98.03;100444.41;5000197;28;20453;-49
2023/09/08 04:47:00;;;;;;;0.40;0.20;;;;;;;13.89;98.45;100449.63;5006082;28;20528;-49
2023/09/08 04:49:28;;;;;;;0.40;0.20;;;;;;;13.75;100.00;100457.31;5005997;28;20452;-48
2023/09/08 04:51:55;;;;;;;0.40;0.20;;;;;;;13.79;99.37;100451.78;5005695;28;20974;-49
2023/09/08 04:54:22;;;;;;;0.40;0.20;;;;;;;13.97;99.30;100451.97;5012528;28;20487;-49
2023/09/08 04:56:48;;;;;;;0.40;0.20;;;;;;;13.85;99.29;100456.91;5019051;28;20873;-48
2023/09/08 04:59:15;;;;;;;0.40;0.20;;;;;;;13.64;100.00;100461.25;5012524;28;20460;-49
2023/09/08 05:01:43;;;;;;;0.40;0.20;;;;;;;13.83;99.40;100457.88;4998694;28;20503;-49
2023/09/08 05:04:10;;;;;;;0.50;0.30;;;;;;;13.95;99.42;100454.72;5010065;28;20518;-49
2023/09/08 05:06:37;;;;;;;0.40;0.20;;;;;;;13.85;99.72;100461.38;5006409;28;20481;-49
2023/09/08 05:09:03;;;;;;;0.40;0.20;;;;;;;13.88;98.95;100462.13;4999564;28;20465;-49
2023/09/08 05:11:30;;;;;;;0.40;0.20;;;;;;;13.94;99.47;100450.31;5005841;28;20453;-48
2023/09/08 05:13:57;;;;;;;0.40;0.20;;;;;;;14.02;99.34;100458.03;5005876;28;20945;-49
2023/09/08 05:16:37;;;;;;;0.40;0.20;;;;;;;13.97;99.62;100460.88;5004367;28;20542;-48
2023/09/08 05:19:04;;;;;;;0.40;0.20;;;;;;;14.59;98.14;100459.25;5001818;28;20461;-48
2023/09/08 05:21:31;;;;;;;0.40;0.20;;;;;;;15.19;95.31;100461.06;4996980;28;20454;-49
2023/09/08 05:23:58;;;;;;;0.40;0.20;;;;;;;15.49;94.29;100471.31;4997218;28;21169;-49
2023/09/08 05:26:24;;;;;;;0.40;0.20;;;;;;;16.06;92.33;100467.78;5010027;28;20563;-49
2023/09/08 05:28:51;;;;;;;0.40;0.20;;;;;;;16.33;90.94;100472.72;5002263;28;20471;-49
2023/09/08 05:31:17;;;;;;;0.40;0.20;;;;;;;16.73;89.35;100471.63;4996357;28;20489;-49
2023/09/08 05:33:44;;;;;;;0.40;0.20;;;;;;;16.87;88.15;100461.94;5006857;28;20453;-49
2023/09/08 05:36:10;;;;;;;1.33;1.23;;;;;;;17.15;87.42;100463.16;5005405;28;20483;-49
2023/09/08 05:38:41;;;;;;;0.40;0.20;;;;;;;17.12;88.38;100466.84;4999331;28;20457;-49
2023/09/08 05:41:07;;;;;;;0.40;0.20;;;;;;;17.24;87.60;100469.84;5002689;28;20548;-49
2023/09/08 05:43:35;;;;;;;0.40;0.20;;;;;;;17.25;87.87;100468.91;5007637;28;20491;-49
2023/09/08 05:46:01;;;;;;;0.40;0.20;;;;;;;17.06;88.89;100479.75;5002968;28;21082;-49
2023/09/08 05:48:28;;;;;;;0.40;0.20;;;;;;;16.84;90.61;100485.34;4995648;28;20457;-49
2023/09/08 05:50:54;;;;;;;0.40;0.20;;;;;;;16.80;91.34;100487.34;5003026;28;20466;-49
2023/09/08 05:53:21;;;;;;;0.40;0.20;;;;;;;16.64;92.26;100490.84;5001947;28;21030;-49
2023/09/08 05:55:48;;;;;;;0.40;0.20;;;;;;;16.57;92.18;100492.97;5016611;28;20475;-49
2023/09/08 05:58:14;;;;;;;0.40;0.20;;;;;;;16.52;93.56;100484.28;5010618;28;20464;-49
2023/09/08 06:00:41;;;;;;;0.40;0.20;;;;;;;16.61;93.87;100491.00;5011785;28;20551;-49
2023/09/08 06:03:07;;;;;;;0.40;0.20;;;;;;;16.61;94.21;100485.66;5000590;28;20496;-49
2023/09/08 06:05:34;;;;;;;0.40;0.20;;;;;;;16.63;94.79;100491.81;5001581;28;20485;-49
2023/09/08 06:08:01;;;;;;;0.40;0.20;;;;;;;16.68;94.73;100492.47;4998739;28;20460;-49
2023/09/08 06:10:33;;;;;;;0.40;0.20;;;;;;;16.80;94.86;100492.72;5004070;28;20452;-51
2023/09/08 06:13:01;;;;;;;0.40;0.20;;;;;;;16.83;93.66;100497.03;4997755;28;20954;-49
2023/09/08 06:15:28;;;;;;;0.40;0.20;;;;;;;16.91;93.49;100491.28;5004310;28;20484;-49
2023/09/08 06:17:55;;;;;;;0.40;0.20;;;;;;;16.72;93.67;100497.63;5013336;28;20456;-50
2023/09/08 06:20:22;;;;;;;0.40;0.20;;;;;;;16.85;93.97;100493.31;5003998;28;20457;-50
2023/09/08 06:22:49;;;;;;;0.40;0.20;;;;;;;16.91;93.33;100488.59;5006051;28;20485;-49
2023/09/08 06:25:16;;;;;;;0.40;0.20;;;;;;;17.02;93.90;100492.47;5007763;28;20530;-49
2023/09/08 06:27:42;;;;;;;0.47;0.30;;;;;;;16.93;94.00;100486.72;5009682;28;20519;-49
2023/09/08 06:30:09;;;;;;;0.40;0.20;;;;;;;17.15;94.60;100488.22;5009392;28;20531;-49
2023/09/08 06:32:36;;;;;;;0.40;0.20;;;;;;;17.29;95.23;100478.56;5000253;28;20438;-49
2023/09/08 06:35:03;;;;;;;0.40;0.20;;;;;;;17.39;94.97;100483.31;5007980;28;20468;-50
2023/09/08 06:37:35;;;;;;;0.40;0.20;;;;;;;17.28;95.48;100477.69;5005913;28;20473;-49
2023/09/08 06:40:01;;;;;;;0.40;0.20;;;;;;;17.38;95.05;100481.59;5008533;28;20451;-49
2023/09/08 06:42:28;;;;;;;0.40;0.20;;;;;;;17.32;95.27;100476.56;4995382;28;20528;-49
2023/09/08 06:44:54;;;;;;;0.40;0.20;;;;;;;17.65;95.38;100484.63;5008425;28;20514;-49
2023/09/08 06:47:21;;;;;;;0.40;0.20;;;;;;;17.63;95.31;100485.66;5002345;28;20945;-49
2023/09/08 06:49:47;;;;;;;0.40;0.20;;;;;;;17.51;95.82;100475.56;5012969;28;20465;-50
2023/09/08 06:52:14;;;;;;;0.40;0.30;;;;;;;17.61;97.26;100479.50;5019926;28;20997;-50
2023/09/08 06:54:40;;;;;;;0.40;0.20;;;;;;;17.93;96.06;100475.91;5021013;28;20479;-49
2023/09/08 06:57:06;;;;;;;0.40;0.20;;;;;;;18.12;94.89;100475.75;5013882;28;20455;-49
2023/09/08 06:59:33;;;;;;;0.40;0.20;;;;;;;18.01;94.58;100478.19;5012910;28;20834;-49
2023/09/08 07:02:00;;;;;;;0.40;0.20;;;;;;;18.30;94.99;100472.00;5003616;28;20488;-49
2023/09/08 07:04:26;;;;;;;0.40;0.20;;;;;;;18.13;95.65;100472.13;5001123;28;20454;-49
2023/09/08 07:06:54;;;;;;;0.40;0.20;;;;;;;18.15;95.56;100474.72;5005809;28;20468;-50
2023/09/08 07:09:21;;;;;;;0.40;0.20;;;;;;;18.23;94.95;100473.34;5008128;28;20543;-49
2023/09/08 07:11:47;;;;;;;0.40;0.20;;;;;;;18.31;94.60;100478.25;5003182;28;20445;-49
2023/09/08 07:14:14;;;;;;;0.40;0.20;;;;;;;18.40;94.58;100472.34;5001150;28;20460;-49
2023/09/08 07:16:40;;;;;;;0.40;0.20;;;;;;;18.48;94.09;100480.84;5004734;28;20565;-49
2023/09/08 07:19:07;;;;;;;0.40;0.20;;;;;;;18.56;94.44;100488.47;5007851;28;20428;-49
2023/09/08 07:21:34;;;;;;;0.40;0.20;;;;;;;18.69;94.35;100488.66;5001657;28;20454;-49
2023/09/08 07:24:00;;;;;;;0.40;0.20;;;;;;;18.84;94.22;100495.84;5007012;28;20485;-49
2023/09/08 07:26:26;;;;;;;0.40;0.27;;;;;;;18.99;93.11;100492.22;5003301;28;20505;-49
2023/09/08 07:28:53;;;;;;;0.40;0.30;;;;;;;19.30;93.28;100495.75;5010128;28;20484;-50
2023/09/08 07:31:19;;;;;;;0.40;0.20;;;;;;;19.19;93.14;100493.72;5011302;28;20480;-49
2023/09/08 07:33:46;;;;;;;0.40;0.20;;;;;;;19.19;92.83;100493.72;5004691;28;20552;-49
2023/09/08 07:36:13;;;;;;;0.40;0.20;;;;;;;19.43;91.63;100491.31;4997641;28;20481;-49
2023/09/08 07:38:40;;;;;;;0.40;0.20;;;;;;;19.49;92.10;100502.63;5006852;28;20967;-49
2023/09/08 07:41:06;;;;;;;0.40;0.30;;;;;;;19.43;92.61;100500.28;5004275;28;20492;-49
2023/09/08 07:43:33;;;;;;;0.40;0.20;;;;;;;19.63;92.67;100495.53;5000725;28;20567;-50
2023/09/08 07:46:00;;;;;;;0.40;0.20;;;;;;;19.84;92.70;100486.06;5012771;28;20854;-50
2023/09/08 07:48:26;;;;;;;0.40;0.20;;;;;;;19.70;92.33;100500.41;5005614;28;20444;-50
2023/09/08 07:50:53;;;;;;;0.50;0.30;;;;;;;19.74;92.92;100495.72;5013200;28;20452;-50
2023/09/08 07:53:19;;;;;;;0.40;0.20;;;;;;;19.98;91.84;100498.66;5009593;28;20499;-49
2023/09/08 07:55:46;;;;;;;0.53;0.53;;;;;;;20.02;92.12;100487.59;5015246;28;20476;-49
2023/09/08 07:58:12;;;;;;;0.40;0.20;;;;;;;20.38;91.20;100494.25;5012565;28;20469;-49
2023/09/08 08:00:38;;;;;;;0.40;0.20;;;;;;;20.57;89.76;100492.09;5004643;28;20489;-49
2023/09/08 08:03:06;;;;;;;0.40;0.20;;;;;;;20.53;90.23;100489.69;4996210;28;21017;-51
2023/09/08 08:05:32;;;;;;;0.40;0.20;;;;;;;20.50;90.27;100492.59;5004117;28;20475;-50
2023/09/08 08:07:59;;;;;;;0.50;0.30;;;;;;;20.58;90.56;100480.31;5003180;28;20545;-49
2023/09/08 08:10:26;;;;;;;0.43;0.20;;;;;;;21.02;89.20;100480.97;5004468;28;20495;-49
2023/09/08 08:12:52;;;;;;;0.50;0.20;;;;;;;21.11;89.07;100496.56;5002585;28;20994;-50
2023/09/08 08:15:21;;;;;;;0.50;0.30;;;;;;;21.06;86.72;100490.59;5002221;28;20485;-49
2023/09/08 08:17:48;;;;;;;0.50;0.20;;;;;;;21.38;86.17;100491.97;5011644;28;20460;-49
2023/09/08 08:20:17;;;;;;;0.50;0.20;;;;;;;21.41;87.59;100491.75;5003121;28;20457;-49
2023/09/08 08:22:45;;;;;;;0.50;0.20;;;;;;;21.57;86.52;100491.53;5008589;28;20512;-49
2023/09/08 08:25:15;;;;;;;0.40;0.20;;;;;;;21.88;85.71;100479.38;5007485;28;20877;-49
2023/09/08 08:27:42;;;;;;;0.50;0.20;;;;;;;22.07;85.27;100485.22;5001156;28;20449;-51
2023/09/08 08:30:11;;;;;;;0.50;0.20;;;;;;;21.83;85.97;100476.13;5011672;28;20463;-50
2023/09/08 08:32:37;;;;;;;0.50;0.20;;;;;;;21.77;86.23;100479.28;5000487;28;20444;-50
2023/09/08 08:35:04;;;;;;;0.50;0.20;;;;;;;22.06;86.13;100475.34;4999071;28;20476;-51
2023/09/08 08:37:31;;;;;;;0.50;0.20;;;;;;;22.29;85.28;100480.91;5009602;28;20452;-49
2023/09/08 08:39:57;;;;;;;0.40;0.20;;;;;;;22.26;84.54;100484.72;4999662;28;20508;-51
2023/09/08 08:42:31;;;;;;;0.73;0.73;;;;;;;22.36;83.97;100482.19;5005029;28;20864;-50
2023/09/08 08:44:58;;;;;;;0.50;0.30;;;;;;;22.59;83.52;100478.59;5006093;28;20504;-50
2023/09/08 08:47:27;;;;;;;0.50;0.20;;;;;;;22.30;84.29;100472.66;5001310;28;20434;-49
2023/09/08 08:49:56;;;;;;;0.50;0.20;;;;;;;22.42;84.13;100474.47;5005939;28;20969;-49
2023/09/08 08:52:22;;;;;;;0.50;0.20;;;;;;;23.08;83.36;100477.59;4998608;28;20898;-49
2023/09/08 08:54:49;;;;;;;0.60;0.60;;;;;;;23.31;83.19;100479.41;4998149;28;20506;-50
2023/09/08 08:57:15;;;;;;;0.50;0.30;;;;;;;23.65;82.04;100474.03;5012250;28;20460;-49
2023/09/08 08:59:43;;;;;;;0.50;0.20;;;;;;;23.57;80.41;100469.22;5009415;28;20540;-50
2023/09/08 09:02:12;;;;;;;0.50;0.40;;;;;;;23.63;81.49;100470.56;5012081;28;20455;-49
2023/09/08 09:04:39;;;;;;;0.50;0.20;;;;;;;23.78;80.81;100473.91;4999055;28;20496;-49
2023/09/08 09:07:07;;;;;;;0.50;0.20;;;;;;;23.80;81.45;100475.50;5001882;28;20512;-50
2023/09/08 09:09:34;;;;;;;0.50;0.30;;;;;;;24.07;80.14;100476.97;5005397;28;20552;-53
2023/09/08 09:12:02;;;;;;;0.50;0.30;;;;;;;24.47;78.36;100471.84;5003157;28;20419;-50
2023/09/08 09:14:35;;;;;;;0.50;0.20;;;;;;;24.52;77.89;100466.88;4999254;28;20455;-50
2023/09/08 09:17:04;;;;;;;0.50;0.20;;;;;;;24.54;77.27;100464.91;5008304;28;20932;-52
2023/09/08 09:19:31;;;;;;;0.50;0.47;;;;;;;24.51;77.80;100465.16;4997432;28;20594;-50
2023/09/08 09:21:59;;;;;;;0.50;0.20;;;;;;;24.57;77.64;100467.38;4993372;28;20442;-50
2023/09/08 09:24:33;;;;;;;0.50;0.30;;;;;;;24.83;77.97;100467.88;5005102;28;20502;-50
2023/09/08 09:27:00;;;;;;;0.50;0.20;;;;;;;25.01;76.71;100466.34;4999282;28;20545;-50
2023/09/08 09:29:28;;;;;;;0.50;0.30;;;;;;;24.89;76.19;100471.94;5004420;28;20852;-53
2023/09/08 09:32:08;;;;;;;0.50;0.20;;;;;;;25.01;74.61;100471.78;4994690;28;20431;-50
2023/09/08 09:34:35;;;;;;;0.50;0.20;;;;;;;24.74;74.24;100474.97;5002122;28;20518;-50
2023/09/08 09:37:05;;;;;;;0.50;0.30;;;;;;;25.31;73.59;100462.81;5006061;28;20539;-53
2023/09/08 09:39:31;;;;;;;0.50;0.30;;;;;;;25.36;73.80;100465.16;5000259;28;20457;-52
2023/09/08 09:41:58;;;;;;;0.50;0.30;;;;;;;25.24;73.75;100455.34;5005849;28;20425;-53
2023/09/08 09:44:26;;;;;;;0.50;0.23;;;;;;;25.22;72.58;100450.03;4997750;28;20493;-53
2023/09/08 09:46:53;;;;;;;0.50;0.40;;;;;;;25.59;71.92;100453.06;5006453;28;20868;-50
2023/09/08 09:49:20;;;;;;;0.50;0.20;;;;;;;25.40;71.74;100455.72;5008008;28;20538;-52
2023/09/08 09:51:49;;;;;;;0.50;0.23;;;;;;;25.91;71.51;100452.97;5007864;28;20544;-53
2023/09/08 09:54:16;;;;;;;0.50;0.33;;;;;;;25.85;70.73;100449.91;5014452;28;20467;-51
2023/09/08 09:56:43;;;;;;;0.50;0.30;;;;;;;25.55;72.06;100448.03;5026807;28;20541;-51
2023/09/08 09:59:13;;;;;;;0.50;0.20;;;;;;;25.75;70.34;100443.56;5012636;28;20456;-52
2023/09/08 10:01:41;;;;;;;0.50;0.30;;;;;;;25.96;70.00;100445.22;5002490;28;20426;-52
2023/09/08 10:04:08;;;;;;;0.50;0.20;;;;;;;26.28;70.25;100435.97;5004511;28;20487;-52
2023/09/08 10:06:37;;;;;;;0.50;0.30;;;;;;;26.29;71.43;100437.69;5002236;28;20443;-51
2023/09/08 10:09:08;;;;;;;0.50;0.20;;;;;;;26.44;69.21;100427.25;5002498;28;20519;-52
2023/09/08 10:11:41;;;;;;;0.50;0.20;;;;;;;26.27;68.16;100423.34;4997526;28;20981;-51
2023/09/08 10:14:11;;;;;;;0.50;0.20;;;;;;;26.56;65.53;100428.84;5008784;28;20510;-52
2023/09/08 10:16:40;;;;;;;0.50;0.30;;;;;;;26.25;65.03;100431.66;5006126;28;20488;-51
2023/09/08 10:19:09;;;;;;;0.50;0.30;;;;;;;26.47;62.45;100424.28;5012363;28;20432;-51
2023/09/08 10:21:50;;;;;;;0.77;0.77;;;;;;;26.65;62.49;100427.16;5003363;28;20484;-51
2023/09/08 10:24:29;;;;;;;0.80;0.80;;;;;;;26.93;61.69;100422.69;5010079;28;20459;-51
2023/09/08 10:27:09;;;;;;;0.50;0.20;;;;;;;26.77;61.95;100420.53;5003224;28;20479;-52
2023/09/08 10:29:37;;;;;;;0.50;0.30;;;;;;;26.75;62.60;100420.69;5014025;28;20460;-51
2023/09/08 10:32:05;;;;;;;0.50;0.20;;;;;;;27.10;61.15;100419.22;5001938;28;20519;-51
2023/09/08 10:34:34;;;;;;;0.50;0.20;;;;;;;26.96;58.94;100420.50;5005960;28;20821;-52
2023/09/08 10:37:00;;;;;;;0.50;0.30;;;;;;;27.10;59.07;100414.63;5008284;28;20448;-52
2023/09/08 10:39:27;;;;;;;0.50;0.20;;;;;;;27.13;60.22;100413.47;5004870;28;20427;-52
2023/09/08 10:42:16;;;;;;;2.50;2.20;;;;;;;27.59;59.75;100409.88;4998870;28;20457;-51
2023/09/08 10:44:42;;;;;;;0.50;0.30;;;;;;;27.30;59.83;100409.13;5007452;28;20535;-52
2023/09/08 10:47:09;;;;;;;0.50;0.27;;;;;;;27.17;60.49;100408.59;4995718;28;20524;-50
2023/09/08 10:49:38;;;;;;;0.50;0.30;;;;;;;27.14;59.18;100409.75;5007846;28;20423;-51
2023/09/08 10:52:08;;;;;;;0.50;0.23;;;;;;;27.37;60.30;100405.63;5001869;28;20522;-50
2023/09/08 10:54:49;;;;;;;0.50;0.20;;;;;;;27.57;59.96;100408.31;5003981;28;20428;-49
2023/09/08 10:57:18;;;;;;;0.50;0.20;;;;;;;27.62;57.50;100401.38;5014255;28;20423;-49
2023/09/08 10:59:56;;;;;;;0.60;0.60;;;;;;;27.70;58.09;100397.94;5010237;28;20464;-50
2023/09/08 11:02:34;;;;;;;0.50;0.30;;;;;;;27.86;57.18;100403.59;5006706;28;20437;-49
2023/09/08 11:05:04;;;;;;;0.50;0.23;;;;;;;28.01;56.88;100409.41;5001846;28;20572;-50
2023/09/08 11:07:32;;;;;;;0.50;0.30;;;;;;;27.95;55.73;100407.28;5001332;28;20968;-51
2023/09/08 11:10:01;;;;;;;0.50;0.27;;;;;;;28.42;55.09;100396.22;5006749;28;21030;-49
2023/09/08 11:12:28;;;;;;;0.50;0.30;;;;;;;28.48;54.14;100403.78;4996464;28;20516;-49
2023/09/08 11:14:55;;;;;;;0.50;0.30;;;;;;;28.32;54.20;100396.28;5005605;28;20478;-49
2023/09/08 11:17:25;;;;;;;0.50;0.20;;;;;;;28.49;53.87;100395.41;5009844;28;20465;-49
2023/09/08 11:19:52;;;;;;;0.50;0.30;;;;;;;28.58;52.43;100399.09;5003909;28;20776;-49
2023/09/08 11:22:21;;;;;;;0.50;0.30;;;;;;;28.51;51.58;100396.13;5007755;28;20544;-49
2023/09/08 11:24:48;;;;;;;0.50;0.30;;;;;;;28.13;53.03;100391.78;5004307;28;20488;-49
2023/09/08 11:27:15;;;;;;;0.50;0.30;;;;;;;28.33;53.06;100392.53;5001919;28;20467;-50